Sandy Lake Airport
CZSJ : now visible

Airfield :











YOU CAN JOIN US ON...

 
LOGIN :

Register | Disclaimer

   EN    FR    IT 

 









Legend :    VFR   Marginal VFR   IFR   Intensive IFR   Very Intensive IFR
Visi :
Ceiling :
>= 8 km
>= 3000ft
5 to 8 km
1000 to 3000 ft
1500m to 5 km
500 to 1000 ft
800 to 1500m
200 to 500 ft
< 800m
< 200 ft
Symbols :   Thunderstorms  Fog  Heavy snow  Heavy precipitations  Wind > 20 kt






- Airport Elevation : 951 ft
- IATA code : ZSJ


CZSJ - Sandy Lake

CURRENT METAR :
  • 162000Z AUTO 21010G22KT 170V250 9SM FEW038 OVC066 23/15 A2932 RMK SLP933 DENSITY ALT 2800FT

EXPIRED METARs :
  • 161900Z AUTO 21010G19KT 160V260 9SM SCT037 BKN049 23/16 A2932 RMK SLP933 DENSITY ALT 2900FT
  • 161800Z AUTO 18008G20KT 140V250 9SM BKN036 BKN045 OVC050 21/15 A2932 RMK SLP933 DENSITY ALT 2600FT
  • 161700Z AUTO 18006G16KT 130V220 9SM FEW022 BKN030 BKN034 21/16 A2934 RMK SLP939 DENSITY ALT 2500FT
  • 161656Z AUTO 18009G16KT 130V220 9SM FEW022 BKN027 OVC034 21/16 A2934 RMK SLP937 DENSITY ALT 2500FT
  • 161600Z AUTO 13012G18KT 9SM BKN018 BKN110 19/16 A2935 RMK SLP943 DENSITY ALT 2300FT

TAF TAF CZSJ
Valid from the 16 at 16:00 until the 16 at 22:00 UTC


161540Z 1616/1622 14010KT P6SM SCT020 BKN080
TEMPO 1616/1622 5SM -SHRA BR OVC020
BECMG 1616/1618 20015G25KT RMK FCST BASED ON AUTO OBS. NXT FCST BY 171000Z
CZWG FIR / North America



MET'MAP, your aeronautical weather chart ! - Copyright ORBIFLY December 2007 - Disclaimer

ORBIFLY MET'MAP TEAM :

Programming & Development : Alexandra Zaïnal
Original concept : Baudouin d'Aumeries
Technical & hardware support : Manuel Goepfert
Assistance : Marc-Olivier Méhu




SOURCES & CREDITS :

   NOAA       Earth
Advisory